createdAt,value
2023-04-26T00:01:08.244Z,6.58
2023-04-26T00:03:34.877Z,6.55
2023-04-26T00:06:08.803Z,6.52
2023-04-26T00:08:35.928Z,6.48
2023-04-26T00:11:02.363Z,6.44
2023-04-26T00:13:28.909Z,6.40
2023-04-26T00:15:55.376Z,6.36
2023-04-26T00:18:22.079Z,6.31
2023-04-26T00:20:48.506Z,6.29
2023-04-26T00:23:14.978Z,6.25
2023-04-26T00:25:41.750Z,6.20
2023-04-26T00:28:08.171Z,6.13
2023-04-26T00:30:37.559Z,6.06
2023-04-26T00:33:04.034Z,6.00
2023-04-26T00:35:31.041Z,5.95
2023-04-26T00:37:57.447Z,5.90
2023-04-26T00:40:23.892Z,5.83
2023-04-26T00:42:57.709Z,5.81
2023-04-26T00:45:24.142Z,5.76
2023-04-26T00:47:51.298Z,5.72
2023-04-26T00:50:18.154Z,5.67
2023-04-26T00:52:47.063Z,5.64
2023-04-26T00:55:14.772Z,5.55
2023-04-26T00:57:41.279Z,5.50
2023-04-26T01:00:08.587Z,5.46
2023-04-26T01:02:35.194Z,5.42
2023-04-26T01:05:01.726Z,5.38
2023-04-26T01:07:28.193Z,5.32
2023-04-26T01:09:55.413Z,5.30
2023-04-26T01:12:23.626Z,5.25
2023-04-26T01:14:50.189Z,5.20
2023-04-26T01:17:16.708Z,5.15
2023-04-26T01:19:50.066Z,5.12
2023-04-26T01:22:16.616Z,5.09
2023-04-26T01:24:44.630Z,5.06
2023-04-26T01:27:11.033Z,5.03
2023-04-26T01:29:37.496Z,4.97
2023-04-26T01:32:04.201Z,4.93
2023-04-26T01:34:30.680Z,4.86
2023-04-26T01:36:57.112Z,4.76
2023-04-26T01:39:23.575Z,4.74
2023-04-26T01:41:49.969Z,4.68
2023-04-26T01:44:16.609Z,4.63
2023-04-26T01:46:43.086Z,4.58
2023-04-26T01:49:09.507Z,4.55
2023-04-26T01:51:36.249Z,4.52
2023-04-26T01:54:03.108Z,4.49
2023-04-26T01:56:29.524Z,4.47
2023-04-26T01:58:56.446Z,4.44
2023-04-26T02:01:23.006Z,4.41
2023-04-26T02:03:49.647Z,4.37
2023-04-26T02:06:16.191Z,4.34
2023-04-26T02:08:42.601Z,4.27
2023-04-26T02:11:09.226Z,4.21
2023-04-26T02:13:35.636Z,4.16
2023-04-26T02:16:02.108Z,4.13
2023-04-26T02:18:29.794Z,4.10
2023-04-26T02:20:56.614Z,4.07
2023-04-26T02:23:24.287Z,4.03
2023-04-26T02:25:50.844Z,4.01
2023-04-26T02:28:17.642Z,3.98
2023-04-26T02:30:44.715Z,3.95
2023-04-26T02:33:11.223Z,3.92
2023-04-26T02:35:37.644Z,3.90
2023-04-26T02:38:04.395Z,3.89
2023-04-26T02:40:30.953Z,3.83
2023-04-26T02:42:57.614Z,3.81
2023-04-26T02:45:24.118Z,3.79
2023-04-26T02:47:50.669Z,3.76
2023-04-26T02:50:17.088Z,3.71
2023-04-26T02:52:43.511Z,3.67
2023-04-26T02:55:10.162Z,3.64
2023-04-26T02:57:36.714Z,3.59
2023-04-26T03:00:05.488Z,3.56
2023-04-26T03:02:32.402Z,3.50
2023-04-26T03:04:59.201Z,3.47
2023-04-26T03:07:25.856Z,3.46
2023-04-26T03:09:52.336Z,3.40
2023-04-26T03:12:18.754Z,3.37
2023-04-26T03:14:45.114Z,3.37
2023-04-26T03:17:11.988Z,3.34
2023-04-26T03:19:38.443Z,3.32
2023-04-26T03:22:04.912Z,3.30
2023-04-26T03:24:31.785Z,3.28
2023-04-26T03:26:58.213Z,3.26
2023-04-26T03:29:24.612Z,3.24
2023-04-26T03:31:51.225Z,3.21
2023-04-26T03:34:17.717Z,3.19
2023-04-26T03:36:44.149Z,3.15
2023-04-26T03:39:11.462Z,3.13
2023-04-26T03:41:39.557Z,3.10
2023-04-26T03:44:06.249Z,3.07
2023-04-26T03:46:32.752Z,3.06
2023-04-26T03:48:59.272Z,3.01
2023-04-26T03:51:27.490Z,3.01
2023-04-26T03:53:54.706Z,2.98
2023-04-26T03:56:21.242Z,2.93
2023-04-26T03:58:47.679Z,2.90
2023-04-26T04:01:14.537Z,2.89
2023-04-26T04:03:41.706Z,2.88
2023-04-26T04:06:08.538Z,2.87
2023-04-26T04:08:35.046Z,2.85
2023-04-26T04:11:01.666Z,2.84
2023-04-26T04:13:28.231Z,2.83
2023-04-26T04:15:54.847Z,2.81
2023-04-26T04:18:21.629Z,2.82
2023-04-26T04:20:48.058Z,2.80
2023-04-26T04:23:14.571Z,2.79
2023-04-26T04:25:41.153Z,2.77
2023-04-26T04:28:08.564Z,2.75
2023-04-26T04:30:35.621Z,2.71
2023-04-26T04:33:02.771Z,2.69
2023-04-26T04:35:33.724Z,2.65
2023-04-26T04:38:01.619Z,2.64
2023-04-26T04:40:28.123Z,2.63
2023-04-26T04:42:55.513Z,2.63
2023-04-26T04:45:22.139Z,2.64
2023-04-26T04:47:48.710Z,2.63
2023-04-26T04:50:15.180Z,2.65
2023-04-26T04:52:42.511Z,2.65
2023-04-26T04:55:09.104Z,2.67
2023-04-26T04:57:35.993Z,2.67
2023-04-26T05:00:09.881Z,2.69
2023-04-26T05:02:37.400Z,2.69
2023-04-26T05:05:05.489Z,2.72
2023-04-26T05:07:32.499Z,2.75
2023-04-26T05:09:59.883Z,2.77
2023-04-26T05:12:26.582Z,2.79
2023-04-26T05:14:53.118Z,2.82
2023-04-26T05:17:19.919Z,2.86
2023-04-26T05:19:46.448Z,2.92
2023-04-26T05:22:21.151Z,2.95
2023-04-26T05:24:48.200Z,3.00
2023-04-26T05:27:14.799Z,3.02
2023-04-26T05:29:41.744Z,3.11
2023-04-26T05:32:08.486Z,3.17
2023-04-26T05:34:35.284Z,3.25
2023-04-26T05:37:04.428Z,3.34
2023-04-26T05:39:31.873Z,3.42
2023-04-26T05:41:58.364Z,3.53
2023-04-26T05:44:24.822Z,3.63
2023-04-26T05:46:51.436Z,3.71
2023-04-26T05:49:17.954Z,3.77
2023-04-26T05:51:44.426Z,3.84
2023-04-26T05:54:10.869Z,3.90
2023-04-26T05:56:37.287Z,3.94
2023-04-26T05:59:03.807Z,4.01
2023-04-26T06:01:30.869Z,4.08
2023-04-26T06:04:00.307Z,4.17
2023-04-26T06:06:28.239Z,4.28
2023-04-26T06:08:54.956Z,4.40
2023-04-26T06:11:21.615Z,4.53
2023-04-26T06:13:48.285Z,4.63
2023-04-26T06:16:14.804Z,4.68
2023-04-26T06:18:41.529Z,4.77
2023-04-26T06:21:08.136Z,4.85
2023-04-26T06:23:34.580Z,4.96
2023-04-26T06:26:01.123Z,5.06
2023-04-26T06:28:27.728Z,5.17
2023-04-26T06:30:54.188Z,5.28
2023-04-26T06:33:20.583Z,5.39
2023-04-26T06:35:47.057Z,5.50
2023-04-26T06:38:13.477Z,5.59
2023-04-26T06:40:40.098Z,5.68
2023-04-26T06:43:06.529Z,5.76
2023-04-26T06:45:32.931Z,5.84
2023-04-26T06:48:00.866Z,5.92
2023-04-26T06:50:27.624Z,6.02
2023-04-26T06:52:54.289Z,6.09
2023-04-26T06:55:21.159Z,6.18
2023-04-26T06:57:47.606Z,6.23
2023-04-26T07:00:14.678Z,6.21
2023-04-26T07:02:41.393Z,6.24
2023-04-26T07:05:08.845Z,6.31
2023-04-26T07:07:35.727Z,6.42
2023-04-26T07:10:03.018Z,6.52
2023-04-26T07:12:29.414Z,6.65
2023-04-26T07:14:55.823Z,6.72
2023-04-26T07:17:22.267Z,6.77
2023-04-26T07:19:48.750Z,6.82
2023-04-26T07:22:15.328Z,6.94
2023-04-26T07:24:41.724Z,7.03
2023-04-26T07:27:08.297Z,7.10
2023-04-26T07:29:34.809Z,7.23
2023-04-26T07:32:01.239Z,7.33
2023-04-26T07:34:27.709Z,7.50
2023-04-26T07:36:54.209Z,7.63
2023-04-26T07:39:20.674Z,7.69
2023-04-26T07:41:47.219Z,7.79
2023-04-26T07:44:13.635Z,7.93
2023-04-26T07:46:40.090Z,8.02
2023-04-26T07:49:06.526Z,8.17
2023-04-26T07:51:33.354Z,8.30
2023-04-26T07:53:59.812Z,8.41
2023-04-26T07:56:26.202Z,8.55
2023-04-26T07:58:52.942Z,8.69
2023-04-26T08:01:19.425Z,8.82
2023-04-26T08:03:46.044Z,8.92
2023-04-26T08:06:12.864Z,9.03
2023-04-26T08:08:44.734Z,9.11
2023-04-26T08:11:11.739Z,9.20
2023-04-26T08:13:38.248Z,9.32
2023-04-26T08:16:05.255Z,9.41
2023-04-26T08:18:31.775Z,9.54
2023-04-26T08:20:58.482Z,9.69
2023-04-26T08:23:24.953Z,9.79
2023-04-26T08:25:51.494Z,9.95
2023-04-26T08:28:18.007Z,10.09
2023-04-26T08:30:44.516Z,10.15
2023-04-26T08:33:11.088Z,10.23
2023-04-26T08:35:37.538Z,10.33
2023-04-26T08:38:04.065Z,10.37
2023-04-26T08:40:30.762Z,10.44
2023-04-26T08:42:57.186Z,10.49
2023-04-26T08:45:24.776Z,10.56
2023-04-26T08:47:53.583Z,10.64
2023-04-26T08:50:23.195Z,10.70
2023-04-26T08:52:52.357Z,10.73
2023-04-26T08:55:20.214Z,10.74
2023-04-26T08:57:48.572Z,10.79
2023-04-26T09:00:16.467Z,10.80
2023-04-26T09:02:47.941Z,10.88
2023-04-26T09:05:14.867Z,10.90
2023-04-26T09:07:44.954Z,10.97
2023-04-26T09:10:13.707Z,11.00
2023-04-26T09:12:40.670Z,11.05
2023-04-26T09:15:08.446Z,10.96
2023-04-26T09:17:37.803Z,10.85
2023-04-26T09:20:24.404Z,10.99
2023-04-26T09:22:52.703Z,11.12
2023-04-26T09:25:27.926Z,11.19
2023-04-26T09:27:54.456Z,11.33
2023-04-26T09:30:22.123Z,11.46
2023-04-26T09:33:00.474Z,11.63
2023-04-26T09:35:38.108Z,11.85
2023-04-26T09:38:15.150Z,11.99
2023-04-26T09:40:49.766Z,12.14
2023-04-26T09:43:21.077Z,12.30
2023-04-26T09:45:56.229Z,12.43
2023-04-26T09:48:23.824Z,12.52
2023-04-26T09:50:55.534Z,12.51
2023-04-26T09:53:39.774Z,12.52
2023-04-26T09:56:08.608Z,12.45
2023-04-26T09:58:58.254Z,12.39
2023-04-26T10:01:26.702Z,12.06
2023-04-26T10:03:53.844Z,12.13
2023-04-26T10:06:20.471Z,12.20
2023-04-26T10:08:46.975Z,12.24
2023-04-26T10:11:13.936Z,12.42
2023-04-26T10:13:41.789Z,12.69
2023-04-26T10:16:09.971Z,13.00
2023-04-26T10:18:36.701Z,13.22
2023-04-26T10:21:29.387Z,13.40
2023-04-26T10:23:56.599Z,13.38
2023-04-26T10:26:56.692Z,13.65
2023-04-26T10:29:25.720Z,13.87
2023-04-26T10:32:08.637Z,13.97
2023-04-26T10:34:37.215Z,14.06
2023-04-26T10:37:08.994Z,14.09
2023-04-26T10:39:36.828Z,14.15
2023-04-26T10:42:25.467Z,14.23
2023-04-26T10:44:59.932Z,14.19
2023-04-26T10:47:37.281Z,14.14
2023-04-26T10:50:08.882Z,14.03
2023-04-26T10:53:00.899Z,14.24
2023-04-26T10:55:43.334Z,14.54
2023-04-26T10:58:32.846Z,14.62
2023-04-26T11:01:18.149Z,14.56
2023-04-26T11:04:04.978Z,14.53
2023-04-26T11:06:57.916Z,14.50
2023-04-26T11:09:38.052Z,14.61
2023-04-26T11:12:05.855Z,14.84
2023-04-26T11:14:34.995Z,15.08
2023-04-26T11:17:06.329Z,15.02
2023-04-26T11:19:33.243Z,15.43
2023-04-26T11:22:03.258Z,15.47
2023-04-26T11:24:31.558Z,15.43
2023-04-26T11:26:58.447Z,15.66
2023-04-26T11:29:25.872Z,15.27
2023-04-26T11:31:53.977Z,15.62
2023-04-26T11:34:34.334Z,15.38
2023-04-26T11:37:05.715Z,14.92
2023-04-26T11:39:36.114Z,15.36
2023-04-26T11:42:10.412Z,15.72
2023-04-26T11:44:37.906Z,15.84
2023-04-26T11:47:06.642Z,15.35
2023-04-26T11:49:37.569Z,15.09
2023-04-26T11:52:05.019Z,15.16
2023-04-26T11:54:37.463Z,15.63
2023-04-26T11:57:16.170Z,15.84
2023-04-26T11:59:44.087Z,15.75
2023-04-26T12:02:10.747Z,15.63
2023-04-26T12:04:38.845Z,15.17
2023-04-26T12:07:07.100Z,15.30
2023-04-26T12:09:33.637Z,15.62
2023-04-26T12:12:02.058Z,15.76
2023-04-26T12:14:36.752Z,15.30
2023-04-26T12:17:06.034Z,15.16
2023-04-26T12:19:40.142Z,15.55
2023-04-26T12:22:08.444Z,15.80
2023-04-26T12:24:38.695Z,15.94
2023-04-26T12:27:06.951Z,16.04
2023-04-26T12:29:34.386Z,15.90
2023-04-26T12:32:01.594Z,16.00
2023-04-26T12:34:28.386Z,15.85
2023-04-26T12:36:55.010Z,15.93
2023-04-26T12:39:21.486Z,15.96
2023-04-26T12:41:47.992Z,15.84
2023-04-26T12:44:14.817Z,15.80
2023-04-26T12:46:41.513Z,15.86
2023-04-26T12:49:08.223Z,15.94
2023-04-26T12:51:34.737Z,16.04
2023-04-26T12:54:01.206Z,15.81
2023-04-26T12:56:29.486Z,15.88
2023-04-26T12:58:56.231Z,15.98
2023-04-26T13:01:22.949Z,16.01
2023-04-26T13:03:49.829Z,16.15
2023-04-26T13:06:16.644Z,16.29
2023-04-26T13:08:43.205Z,16.38
2023-04-26T13:11:09.595Z,16.26
2023-04-26T13:13:43.804Z,16.34
2023-04-26T13:16:11.746Z,16.12
2023-04-26T13:18:38.632Z,16.00
2023-04-26T13:21:05.215Z,15.94
2023-04-26T13:23:31.918Z,15.93
2023-04-26T13:25:58.343Z,15.84
2023-04-26T13:28:24.810Z,15.63
2023-04-26T13:30:52.377Z,15.56
2023-04-26T13:33:20.175Z,15.51
2023-04-26T13:35:46.643Z,15.30
2023-04-26T13:38:13.457Z,15.22
2023-04-26T13:40:40.014Z,15.23
2023-04-26T13:43:06.446Z,15.23
2023-04-26T13:45:36.707Z,15.32
2023-04-26T13:48:03.541Z,15.42
2023-04-26T13:50:30.084Z,15.47
2023-04-26T13:52:56.741Z,15.55
2023-04-26T13:55:23.378Z,15.63
2023-04-26T13:57:49.856Z,15.70
2023-04-26T14:00:16.801Z,15.73
2023-04-26T14:02:43.488Z,15.85
2023-04-26T14:05:10.350Z,16.01
2023-04-26T14:07:36.920Z,16.15
2023-04-26T14:10:03.632Z,16.13
2023-04-26T14:12:30.121Z,16.27
2023-04-26T14:14:56.608Z,16.62
2023-04-26T14:17:23.032Z,16.92
2023-04-26T14:19:49.509Z,17.11
2023-04-26T14:22:17.577Z,17.28
2023-04-26T14:24:44.244Z,17.47
2023-04-26T14:27:10.670Z,17.78
2023-04-26T14:29:37.098Z,18.06
2023-04-26T14:32:03.634Z,18.31
2023-04-26T14:34:30.081Z,18.55
2023-04-26T14:37:01.347Z,18.79
2023-04-26T14:39:28.008Z,18.96
2023-04-26T14:41:56.218Z,19.27
2023-04-26T14:44:26.262Z,19.23
2023-04-26T14:46:53.194Z,19.30
2023-04-26T14:49:19.889Z,19.18
2023-04-26T14:51:46.632Z,19.28
2023-04-26T14:54:13.106Z,19.19
2023-04-26T14:56:39.491Z,19.13
2023-04-26T14:59:05.933Z,19.19
2023-04-26T15:01:32.401Z,19.16
2023-04-26T15:04:00.860Z,19.33
2023-04-26T15:06:28.679Z,19.35
2023-04-26T15:08:55.173Z,19.42
2023-04-26T15:11:21.593Z,19.24
2023-04-26T15:13:48.097Z,18.99
2023-04-26T15:16:14.594Z,18.74
2023-04-26T15:18:41.037Z,18.44
2023-04-26T15:21:07.472Z,18.26
2023-04-26T15:23:33.918Z,18.07
2023-04-26T15:26:03.951Z,17.98
2023-04-26T15:28:30.426Z,17.93
2023-04-26T15:31:09.753Z,17.74
2023-04-26T15:33:36.502Z,17.76
2023-04-26T15:36:03.204Z,17.67
2023-04-26T15:38:29.632Z,17.57
2023-04-26T15:40:56.141Z,17.74
2023-04-26T15:43:22.555Z,17.82
2023-04-26T15:45:49.655Z,17.93
2023-04-26T15:48:16.520Z,18.06
2023-04-26T15:50:42.971Z,18.27
2023-04-26T15:53:09.483Z,18.32
2023-04-26T15:55:35.948Z,18.40
2023-04-26T15:58:02.511Z,18.42
2023-04-26T16:00:29.089Z,18.55
2023-04-26T16:02:55.851Z,18.83
2023-04-26T16:05:22.402Z,18.73
2023-04-26T16:07:48.794Z,18.68
2023-04-26T16:10:15.208Z,18.70
2023-04-26T16:12:42.818Z,18.72
2023-04-26T16:15:09.827Z,18.71
2023-04-26T16:17:37.660Z,18.58
2023-04-26T16:20:06.804Z,18.44
2023-04-26T16:22:34.378Z,18.36
2023-04-26T16:25:01.563Z,18.06
2023-04-26T16:27:27.994Z,17.79
2023-04-26T16:29:54.605Z,17.63
2023-04-26T16:32:21.735Z,17.48
2023-04-26T16:34:48.318Z,17.36
2023-04-26T16:37:14.749Z,17.26
2023-04-26T16:39:41.249Z,17.13
2023-04-26T16:42:07.739Z,16.95
2023-04-26T16:44:34.157Z,16.82
2023-04-26T16:47:01.653Z,16.65
2023-04-26T16:49:28.299Z,16.55
2023-04-26T16:51:58.690Z,16.44
2023-04-26T16:54:28.424Z,16.34
2023-04-26T16:56:54.948Z,16.35
2023-04-26T16:59:21.410Z,16.44
2023-04-26T17:01:47.940Z,16.52
2023-04-26T17:04:14.772Z,16.56
2023-04-26T17:06:41.511Z,16.60
2023-04-26T17:09:08.695Z,16.64
2023-04-26T17:11:37.227Z,16.62
2023-04-26T17:14:04.439Z,16.64
2023-04-26T17:16:31.152Z,16.55
2023-04-26T17:18:58.267Z,16.50
2023-04-26T17:21:24.819Z,16.40
2023-04-26T17:23:51.293Z,16.33
2023-04-26T17:26:17.766Z,16.23
2023-04-26T17:28:44.296Z,16.13
2023-04-26T17:31:10.768Z,16.05
2023-04-26T17:33:37.410Z,16.01
2023-04-26T17:36:04.154Z,15.99
2023-04-26T17:38:30.556Z,15.87
2023-04-26T17:40:56.980Z,15.81
2023-04-26T17:43:23.541Z,15.78
2023-04-26T17:45:50.037Z,15.80
2023-04-26T17:48:17.064Z,15.84
2023-04-26T17:50:43.762Z,15.87
2023-04-26T17:53:10.273Z,15.86
2023-04-26T17:55:37.378Z,15.85
2023-04-26T17:58:03.836Z,15.80
2023-04-26T18:00:30.271Z,15.76
2023-04-26T18:02:57.919Z,15.61
2023-04-26T18:05:25.177Z,15.43
2023-04-26T18:07:51.833Z,15.22
2023-04-26T18:10:18.474Z,14.99
2023-04-26T18:12:44.874Z,14.76
2023-04-26T18:15:12.267Z,14.53
2023-04-26T18:17:38.739Z,14.33
2023-04-26T18:20:06.536Z,14.10
2023-04-26T18:22:33.121Z,13.89
2023-04-26T18:24:59.538Z,13.72
2023-04-26T18:27:26.627Z,13.55
2023-04-26T18:29:53.065Z,13.38
2023-04-26T18:32:19.456Z,13.22
2023-04-26T18:34:46.436Z,13.05
2023-04-26T18:37:12.809Z,12.87
2023-04-26T18:39:39.281Z,12.68
2023-04-26T18:42:05.933Z,12.50
2023-04-26T18:44:32.463Z,12.32
2023-04-26T18:46:59.315Z,12.18
2023-04-26T18:49:27.215Z,12.02
2023-04-26T18:51:54.401Z,11.87
2023-04-26T18:54:20.968Z,11.74
2023-04-26T18:56:47.403Z,11.62
2023-04-26T18:59:13.853Z,11.49
2023-04-26T19:01:41.087Z,11.39
2023-04-26T19:04:09.109Z,11.27
2023-04-26T19:06:35.761Z,11.14
2023-04-26T19:09:02.557Z,11.03
2023-04-26T19:11:28.986Z,10.95
2023-04-26T19:13:55.473Z,10.85
2023-04-26T19:16:22.225Z,10.74
2023-04-26T19:18:49.080Z,10.64
2023-04-26T19:21:16.266Z,10.54
2023-04-26T19:23:44.281Z,10.42
2023-04-26T19:26:15.055Z,10.30
2023-04-26T19:28:41.621Z,10.18
2023-04-26T19:31:08.256Z,10.06
2023-04-26T19:33:34.817Z,9.93
2023-04-26T19:36:01.325Z,9.84
2023-04-26T19:38:28.694Z,9.79
2023-04-26T19:40:55.201Z,9.70
2023-04-26T19:43:21.720Z,9.65
2023-04-26T19:45:48.229Z,9.58
2023-04-26T19:48:14.726Z,9.49
2023-04-26T19:50:42.624Z,9.44
2023-04-26T19:53:10.047Z,9.39
2023-04-26T19:55:40.898Z,9.34
2023-04-26T19:58:08.026Z,9.29
2023-04-26T20:00:38.501Z,9.21
2023-04-26T20:03:05.564Z,9.15
2023-04-26T20:05:32.255Z,9.11
2023-04-26T20:07:58.673Z,9.06
2023-04-26T20:10:25.401Z,9.02
2023-04-26T20:12:53.021Z,8.97
2023-04-26T20:15:19.557Z,8.91
2023-04-26T20:17:45.983Z,8.91
2023-04-26T20:20:12.687Z,8.89
2023-04-26T20:22:39.968Z,8.89
2023-04-26T20:25:06.819Z,8.87
2023-04-26T20:27:33.626Z,8.88
2023-04-26T20:30:00.260Z,8.86
2023-04-26T20:32:26.842Z,8.83
2023-04-26T20:34:53.594Z,8.81
2023-04-26T20:37:20.114Z,8.78
2023-04-26T20:39:47.218Z,8.72
2023-04-26T20:42:14.328Z,8.68
2023-04-26T20:44:40.736Z,8.65
2023-04-26T20:47:07.254Z,8.65
2023-04-26T20:49:33.685Z,8.64
2023-04-26T20:52:00.106Z,8.66
2023-04-26T20:54:26.577Z,8.66
2023-04-26T20:56:52.975Z,8.65
2023-04-26T20:59:19.355Z,8.66
2023-04-26T21:01:45.971Z,8.68
2023-04-26T21:04:12.541Z,8.66
2023-04-26T21:06:39.136Z,8.61
2023-04-26T21:09:05.647Z,8.60
2023-04-26T21:11:32.266Z,8.54
2023-04-26T21:13:58.818Z,8.50
2023-04-26T21:16:25.547Z,8.47
2023-04-26T21:18:52.549Z,8.44
2023-04-26T21:21:19.100Z,8.43
2023-04-26T21:23:45.540Z,8.42
2023-04-26T21:26:11.962Z,8.40
2023-04-26T21:28:38.302Z,8.37
2023-04-26T21:31:06.357Z,8.35
2023-04-26T21:33:33.967Z,8.32
2023-04-26T21:36:00.781Z,8.31
2023-04-26T21:38:27.419Z,8.28
2023-04-26T21:40:53.832Z,8.24
2023-04-26T21:43:21.603Z,8.18
2023-04-26T21:45:50.069Z,8.17
2023-04-26T21:48:16.696Z,8.16
2023-04-26T21:50:43.196Z,8.14
2023-04-26T21:53:09.568Z,8.11
2023-04-26T21:55:35.953Z,8.12
2023-04-26T21:58:02.400Z,8.10
2023-04-26T22:00:28.792Z,8.08
2023-04-26T22:02:55.469Z,8.08
2023-04-26T22:05:22.265Z,8.09
2023-04-26T22:07:48.683Z,8.06
2023-04-26T22:10:16.350Z,8.04
2023-04-26T22:12:43.141Z,8.02
2023-04-26T22:15:09.986Z,8.01
2023-04-26T22:17:36.483Z,8.02
2023-04-26T22:20:03.704Z,8.00
2023-04-26T22:22:30.226Z,7.99
2023-04-26T22:24:56.711Z,8.00
2023-04-26T22:27:23.202Z,8.01
2023-04-26T22:29:49.702Z,8.00
2023-04-26T22:32:16.199Z,7.97
2023-04-26T22:34:43.853Z,7.99
2023-04-26T22:37:20.203Z,7.96
2023-04-26T22:39:47.486Z,7.92
2023-04-26T22:42:13.888Z,7.89
2023-04-26T22:44:40.382Z,7.82
2023-04-26T22:47:06.889Z,7.78
2023-04-26T22:49:33.626Z,7.75
2023-04-26T22:52:07.961Z,7.69
2023-04-26T22:54:38.561Z,7.63
2023-04-26T22:57:07.264Z,7.58
2023-04-26T22:59:34.284Z,7.52
2023-04-26T23:02:01.689Z,7.51
2023-04-26T23:04:28.200Z,7.48
2023-04-26T23:06:54.750Z,7.47
2023-04-26T23:09:21.345Z,7.44
2023-04-26T23:11:47.936Z,7.44
2023-04-26T23:14:15.747Z,7.37
2023-04-26T23:16:42.476Z,7.28
2023-04-26T23:19:09.580Z,7.21
2023-04-26T23:21:36.235Z,7.16
2023-04-26T23:24:02.802Z,7.12
2023-04-26T23:26:29.322Z,7.09
2023-04-26T23:28:55.840Z,7.08
2023-04-26T23:31:22.278Z,7.06
2023-04-26T23:33:48.735Z,7.02
2023-04-26T23:36:15.168Z,7.00
2023-04-26T23:38:41.726Z,6.96
2023-04-26T23:41:08.141Z,6.92
2023-04-26T23:43:34.544Z,6.88
2023-04-26T23:46:00.974Z,6.83
2023-04-26T23:48:27.449Z,6.82
2023-04-26T23:50:53.964Z,6.75
2023-04-26T23:53:20.510Z,6.73
2023-04-26T23:55:47.279Z,6.68
2023-04-26T23:58:13.795Z,6.64
